createdAt,value
2022-11-08T00:00:49.580Z,3.07
2022-11-08T00:01:54.420Z,2.70
2022-11-08T00:02:58.594Z,3.00
2022-11-08T00:04:02.153Z,2.77
2022-11-08T00:05:22.924Z,3.20
2022-11-08T00:06:46.906Z,3.07
2022-11-08T00:08:09.179Z,2.93
2022-11-08T00:09:30.912Z,3.40
2022-11-08T00:10:57.844Z,2.67
2022-11-08T00:12:21.283Z,2.90
2022-11-08T00:13:42.210Z,3.67
2022-11-08T00:14:46.141Z,2.70
2022-11-08T00:15:50.763Z,3.23
2022-11-08T00:16:55.484Z,2.83
2022-11-08T00:18:07.243Z,2.60
2022-11-08T00:19:10.474Z,3.10
2022-11-08T00:20:18.597Z,3.20
2022-11-08T00:21:21.279Z,2.80
2022-11-08T00:22:24.013Z,2.90
2022-11-08T00:23:28.846Z,2.83
2022-11-08T00:24:31.651Z,3.10
2022-11-08T00:25:33.636Z,2.77
2022-11-08T00:26:35.699Z,2.90
2022-11-08T00:27:37.721Z,2.80
2022-11-08T00:28:39.413Z,2.60
2022-11-08T00:29:44.499Z,2.87
2022-11-08T00:31:11.293Z,3.07
2022-11-08T00:32:16.422Z,2.70
2022-11-08T00:33:18.502Z,2.60
2022-11-08T00:34:20.916Z,3.13
2022-11-08T00:35:22.737Z,3.13
2022-11-08T00:36:27.517Z,3.10
2022-11-08T00:37:32.064Z,3.10
2022-11-08T00:38:34.788Z,3.00
2022-11-08T00:39:38.281Z,2.60
2022-11-08T00:40:43.043Z,2.57
2022-11-08T00:41:45.179Z,2.30
2022-11-08T00:42:47.006Z,2.17
2022-11-08T00:43:49.122Z,2.73
2022-11-08T00:44:51.060Z,2.27
2022-11-08T00:45:53.093Z,2.50
2022-11-08T00:46:57.286Z,2.83
2022-11-08T00:48:01.904Z,2.93
2022-11-08T00:49:04.204Z,2.73
2022-11-08T00:50:07.725Z,2.30
2022-11-08T00:51:11.008Z,2.10
2022-11-08T00:52:12.910Z,2.30
2022-11-08T00:53:18.061Z,2.40
2022-11-08T00:54:22.455Z,2.40
2022-11-08T00:55:25.003Z,2.50
2022-11-08T00:56:29.669Z,2.43
2022-11-08T00:57:54.073Z,2.43
2022-11-08T00:59:00.577Z,2.20
2022-11-08T01:00:05.373Z,2.60
2022-11-08T01:01:16.871Z,2.50
2022-11-08T01:02:25.365Z,2.50
2022-11-08T01:03:33.257Z,2.80
2022-11-08T01:04:35.377Z,2.77
2022-11-08T01:05:42.246Z,2.60
2022-11-08T01:07:02.823Z,2.30
2022-11-08T01:08:04.781Z,2.50
2022-11-08T01:09:07.350Z,2.50
2022-11-08T01:10:09.970Z,2.43
2022-11-08T01:11:19.001Z,2.47
2022-11-08T01:12:20.982Z,2.20
2022-11-08T01:13:23.294Z,2.13
2022-11-08T01:14:25.172Z,2.60
2022-11-08T01:15:46.258Z,2.47
2022-11-08T01:16:51.006Z,2.47
2022-11-08T01:17:53.414Z,2.53
2022-11-08T01:18:55.895Z,2.33
2022-11-08T01:19:57.217Z,2.60
2022-11-08T01:20:58.581Z,2.67
2022-11-08T01:21:59.910Z,2.50
2022-11-08T01:23:01.215Z,2.50
2022-11-08T01:24:02.624Z,2.50
2022-11-08T01:25:04.172Z,2.30
2022-11-08T01:26:10.427Z,2.50
2022-11-08T01:27:11.798Z,2.70
2022-11-08T01:28:13.315Z,2.70
2022-11-08T01:29:14.675Z,2.33
2022-11-08T01:30:16.042Z,2.60
2022-11-08T01:31:18.786Z,2.50
2022-11-08T01:32:20.163Z,2.60
2022-11-08T01:33:21.661Z,2.30
2022-11-08T01:34:23.022Z,2.83
2022-11-08T01:35:24.403Z,2.67
2022-11-08T01:36:27.280Z,2.60
2022-11-08T01:37:28.660Z,2.20
2022-11-08T01:38:30.060Z,2.63
2022-11-08T01:39:32.975Z,2.67
2022-11-08T01:40:34.447Z,2.43
2022-11-08T01:41:35.818Z,2.20
2022-11-08T01:42:37.213Z,2.60
2022-11-08T01:43:45.796Z,2.67
2022-11-08T01:44:59.231Z,2.83
2022-11-08T01:46:09.513Z,2.30
2022-11-08T01:47:10.863Z,2.27
2022-11-08T01:48:12.203Z,2.20
2022-11-08T01:49:32.495Z,2.30
2022-11-08T01:50:33.860Z,2.30
2022-11-08T01:51:50.723Z,2.60
2022-11-08T01:52:53.976Z,2.50
2022-11-08T01:53:55.628Z,2.70
2022-11-08T01:55:00.331Z,2.63
2022-11-08T01:56:01.873Z,2.27
2022-11-08T01:57:05.201Z,2.20
2022-11-08T01:58:09.580Z,2.80
2022-11-08T01:59:11.170Z,2.60
2022-11-08T02:00:12.756Z,2.43
2022-11-08T02:01:14.076Z,2.80
2022-11-08T02:02:15.714Z,2.50
2022-11-08T02:03:18.522Z,2.30
2022-11-08T02:04:19.917Z,2.27
2022-11-08T02:05:27.361Z,2.63
2022-11-08T02:06:29.546Z,2.40
2022-11-08T02:07:31.550Z,2.20
2022-11-08T02:08:34.734Z,2.47
2022-11-08T02:09:37.535Z,2.53
2022-11-08T02:10:43.293Z,2.47
2022-11-08T02:11:46.272Z,2.43
2022-11-08T02:12:48.230Z,2.83
2022-11-08T02:13:49.644Z,2.83
2022-11-08T02:14:51.046Z,2.27
2022-11-08T02:15:52.823Z,2.33
2022-11-08T02:16:54.341Z,2.23
2022-11-08T02:17:55.751Z,2.50
2022-11-08T02:18:57.161Z,2.10
2022-11-08T02:19:58.499Z,2.13
2022-11-08T02:21:02.903Z,2.20
2022-11-08T02:22:05.914Z,2.33
2022-11-08T02:23:10.414Z,2.77
2022-11-08T02:24:12.976Z,2.40
2022-11-08T02:25:14.507Z,2.57
2022-11-08T02:26:16.772Z,2.47
2022-11-08T02:27:18.164Z,2.50
2022-11-08T02:28:19.829Z,2.57
2022-11-08T02:29:22.448Z,2.60
2022-11-08T02:30:23.790Z,2.40
2022-11-08T02:31:25.089Z,2.20
2022-11-08T02:32:26.386Z,2.23
2022-11-08T02:33:27.695Z,2.40
2022-11-08T02:34:34.431Z,2.50
2022-11-08T02:35:35.785Z,2.70
2022-11-08T02:36:37.142Z,2.33
2022-11-08T02:37:38.631Z,2.03
2022-11-08T02:38:42.247Z,2.20
2022-11-08T02:39:44.100Z,2.13
2022-11-08T02:40:46.655Z,2.10
2022-11-08T02:41:47.950Z,2.27
2022-11-08T02:42:49.257Z,2.20
2022-11-08T02:43:50.584Z,2.13
2022-11-08T02:44:51.921Z,2.50
2022-11-08T02:45:53.244Z,2.33
2022-11-08T02:46:54.638Z,2.00
2022-11-08T02:47:56.039Z,2.40
2022-11-08T02:48:57.378Z,2.57
2022-11-08T02:49:58.760Z,2.00
2022-11-08T02:51:00.109Z,2.27
2022-11-08T02:52:01.460Z,2.23
2022-11-08T02:53:03.045Z,2.20
2022-11-08T02:54:04.441Z,2.20
2022-11-08T02:55:06.137Z,2.20
2022-11-08T02:56:07.615Z,2.40
2022-11-08T02:57:08.968Z,2.40
2022-11-08T02:58:10.526Z,2.50
2022-11-08T02:59:11.959Z,2.47
2022-11-08T03:00:13.498Z,2.30
2022-11-08T03:01:15.145Z,2.37
2022-11-08T03:02:16.809Z,2.50
2022-11-08T03:03:18.354Z,2.10
2022-11-08T03:04:19.696Z,2.60
2022-11-08T03:05:21.346Z,2.50
2022-11-08T03:06:23.370Z,2.37
2022-11-08T03:07:25.214Z,2.37
2022-11-08T03:08:26.765Z,2.03
2022-11-08T03:09:28.142Z,2.60
2022-11-08T03:10:29.858Z,2.50
2022-11-08T03:11:31.300Z,2.23
2022-11-08T03:12:32.718Z,2.33
2022-11-08T03:13:34.973Z,2.47
2022-11-08T03:14:36.431Z,2.37
2022-11-08T03:15:37.889Z,2.50
2022-11-08T03:16:39.219Z,2.73
2022-11-08T03:17:40.854Z,2.33
2022-11-08T03:18:42.210Z,2.30
2022-11-08T03:19:43.719Z,2.73
2022-11-08T03:20:45.403Z,2.60
2022-11-08T03:21:47.083Z,2.37
2022-11-08T03:22:48.730Z,2.43
2022-11-08T03:23:50.410Z,2.50
2022-11-08T03:24:52.283Z,2.60
2022-11-08T03:25:54.358Z,2.50
2022-11-08T03:26:56.676Z,2.27
2022-11-08T03:28:08.283Z,2.30
2022-11-08T03:29:09.918Z,2.40
2022-11-08T03:30:11.645Z,2.20
2022-11-08T03:31:13.194Z,2.50
2022-11-08T03:32:15.518Z,2.20
2022-11-08T03:33:17.195Z,2.13
2022-11-08T03:34:18.944Z,2.40
2022-11-08T03:35:20.443Z,2.33
2022-11-08T03:36:22.180Z,2.50
2022-11-08T03:37:23.770Z,2.20
2022-11-08T03:38:25.334Z,2.60
2022-11-08T03:39:26.815Z,2.40
2022-11-08T03:40:28.480Z,2.40
2022-11-08T03:41:30.051Z,2.70
2022-11-08T03:42:31.528Z,2.67
2022-11-08T03:43:32.845Z,2.47
2022-11-08T03:44:34.323Z,2.30
2022-11-08T03:45:35.618Z,2.77
2022-11-08T03:46:36.943Z,2.40
2022-11-08T03:47:39.439Z,2.57
2022-11-08T03:48:40.841Z,2.53
2022-11-08T03:49:42.224Z,2.03
2022-11-08T03:50:43.533Z,2.27
2022-11-08T03:51:45.044Z,2.17
2022-11-08T03:52:50.933Z,2.30
2022-11-08T03:53:52.278Z,2.50
2022-11-08T03:54:53.622Z,2.40
2022-11-08T03:55:54.948Z,2.70
2022-11-08T03:56:56.287Z,2.40
2022-11-08T03:57:57.802Z,2.20
2022-11-08T03:58:59.197Z,2.60
2022-11-08T04:00:00.530Z,2.50
2022-11-08T04:01:05.932Z,2.17
2022-11-08T04:02:07.463Z,2.20
2022-11-08T04:03:09.472Z,2.40
2022-11-08T04:04:10.840Z,2.57
2022-11-08T04:05:13.169Z,2.47
2022-11-08T04:06:14.507Z,2.60
2022-11-08T04:07:15.916Z,2.30
2022-11-08T04:08:17.609Z,2.40
2022-11-08T04:09:21.708Z,2.20
2022-11-08T04:10:23.301Z,2.70
2022-11-08T04:11:43.047Z,2.10
2022-11-08T04:13:03.153Z,2.40
2022-11-08T04:14:22.980Z,2.50
2022-11-08T04:15:24.537Z,2.40
2022-11-08T04:16:25.986Z,2.20
2022-11-08T04:17:47.462Z,2.27
2022-11-08T04:19:07.591Z,2.20
2022-11-08T04:20:28.014Z,2.20
2022-11-08T04:21:29.378Z,2.30
2022-11-08T04:22:30.715Z,2.20
2022-11-08T04:23:33.163Z,2.33
2022-11-08T04:24:34.490Z,2.03
2022-11-08T04:25:35.906Z,2.17
2022-11-08T04:26:37.420Z,2.13
2022-11-08T04:27:38.786Z,2.70
2022-11-08T04:28:40.834Z,2.43
2022-11-08T04:29:42.230Z,2.33
2022-11-08T04:30:43.668Z,2.20
2022-11-08T04:31:45.086Z,1.73
2022-11-08T04:32:46.456Z,2.40
2022-11-08T04:33:47.777Z,2.20
2022-11-08T04:34:49.225Z,2.47
2022-11-08T04:35:50.779Z,2.03
2022-11-08T04:36:52.156Z,2.13
2022-11-08T04:37:57.140Z,2.10
2022-11-08T04:38:58.655Z,2.27
2022-11-08T04:40:00.007Z,2.30
2022-11-08T04:41:02.710Z,2.30
2022-11-08T04:42:04.086Z,2.10
2022-11-08T04:43:05.396Z,2.40
2022-11-08T04:44:06.802Z,2.00
2022-11-08T04:45:08.383Z,2.27
2022-11-08T04:46:14.058Z,2.00
2022-11-08T04:47:15.434Z,2.10
2022-11-08T04:48:17.197Z,2.30
2022-11-08T04:49:18.713Z,2.20
2022-11-08T04:50:20.059Z,1.87
2022-11-08T04:51:29.403Z,1.93
2022-11-08T04:52:30.725Z,2.40
2022-11-08T04:53:32.291Z,2.10
2022-11-08T04:54:33.606Z,2.17
2022-11-08T04:55:37.002Z,2.20
2022-11-08T04:56:38.382Z,2.37
2022-11-08T04:57:39.685Z,2.23
2022-11-08T04:58:42.392Z,2.50
2022-11-08T04:59:43.687Z,2.23
2022-11-08T05:00:45.011Z,2.17
2022-11-08T05:01:46.416Z,2.27
2022-11-08T05:02:47.921Z,2.10
2022-11-08T05:03:50.048Z,2.50
2022-11-08T05:04:51.361Z,2.33
2022-11-08T05:05:52.643Z,2.10
2022-11-08T05:06:54.010Z,2.20
2022-11-08T05:07:55.381Z,2.20
2022-11-08T05:08:57.210Z,2.37
2022-11-08T05:10:02.183Z,2.73
2022-11-08T05:11:04.943Z,2.50
2022-11-08T05:12:06.374Z,2.33
2022-11-08T05:13:07.720Z,2.17
2022-11-08T05:14:09.158Z,2.60
2022-11-08T05:15:10.989Z,2.67
2022-11-08T05:16:18.454Z,2.30
2022-11-08T05:17:19.771Z,2.27
2022-11-08T05:18:21.096Z,2.30
2022-11-08T05:19:41.155Z,2.97
2022-11-08T05:21:20.658Z,3.67
2022-11-08T05:22:40.894Z,4.67
2022-11-08T05:23:42.337Z,3.97
2022-11-08T05:24:43.702Z,3.43
2022-11-08T05:25:46.281Z,3.10
2022-11-08T05:26:47.948Z,2.87
2022-11-08T05:27:49.291Z,3.00
2022-11-08T05:28:50.601Z,2.53
2022-11-08T05:29:51.929Z,2.93
2022-11-08T05:30:56.556Z,2.80
2022-11-08T05:31:57.854Z,2.73
2022-11-08T05:32:59.199Z,2.60
2022-11-08T05:34:00.894Z,3.10
2022-11-08T05:35:02.292Z,2.87
2022-11-08T05:36:05.988Z,3.13
2022-11-08T05:37:07.771Z,2.97
2022-11-08T05:38:09.125Z,3.10
2022-11-08T05:39:10.516Z,3.27
2022-11-08T05:40:12.061Z,2.90
2022-11-08T05:41:17.905Z,2.53
2022-11-08T05:42:19.283Z,3.00
2022-11-08T05:43:20.926Z,3.13
2022-11-08T05:44:22.471Z,3.13
2022-11-08T05:45:24.162Z,2.80
2022-11-08T05:46:27.782Z,3.00
2022-11-08T05:47:29.269Z,2.67
2022-11-08T05:48:30.582Z,2.80
2022-11-08T05:49:31.891Z,3.00
2022-11-08T05:50:34.446Z,2.80
2022-11-08T05:51:39.656Z,3.10
2022-11-08T05:52:40.979Z,2.90
2022-11-08T05:53:42.442Z,2.93
2022-11-08T05:54:43.770Z,3.00
2022-11-08T05:55:45.085Z,2.80
2022-11-08T05:56:46.398Z,2.70
2022-11-08T05:57:47.756Z,2.40
2022-11-08T05:58:49.184Z,2.90
2022-11-08T05:59:50.769Z,2.40
2022-11-08T06:00:59.100Z,2.87
2022-11-08T06:02:00.487Z,2.97
2022-11-08T06:03:02.875Z,2.70
2022-11-08T06:04:04.273Z,2.60
2022-11-08T06:05:06.477Z,2.50
2022-11-08T06:06:09.197Z,2.50
2022-11-08T06:07:10.548Z,2.90
2022-11-08T06:08:11.901Z,2.60
2022-11-08T06:09:13.299Z,2.83
2022-11-08T06:10:14.665Z,2.70
2022-11-08T06:11:17.272Z,2.43
2022-11-08T06:12:19.428Z,2.50
2022-11-08T06:13:20.759Z,2.67
2022-11-08T06:14:22.132Z,2.20
2022-11-08T06:15:23.556Z,2.67
2022-11-08T06:16:25.215Z,2.70
2022-11-08T06:17:30.131Z,2.70
2022-11-08T06:18:32.498Z,2.80
2022-11-08T06:19:33.895Z,2.73
2022-11-08T06:20:35.690Z,2.63
2022-11-08T06:21:37.024Z,3.37
2022-11-08T06:22:38.461Z,3.53
2022-11-08T06:23:39.799Z,3.00
2022-11-08T06:24:41.175Z,2.57
2022-11-08T06:25:47.335Z,2.70
2022-11-08T06:26:48.866Z,2.47
2022-11-08T06:27:50.163Z,2.30
2022-11-08T06:28:51.468Z,2.50
2022-11-08T06:29:53.017Z,2.60
2022-11-08T06:30:54.374Z,2.40
2022-11-08T06:31:55.751Z,2.67
2022-11-08T06:32:59.139Z,2.70
2022-11-08T06:34:00.750Z,2.50
2022-11-08T06:35:02.067Z,3.30
2022-11-08T06:36:03.573Z,3.07
2022-11-08T06:37:05.052Z,2.83
2022-11-08T06:38:09.325Z,3.27
2022-11-08T06:39:10.970Z,3.07
2022-11-08T06:40:12.342Z,2.97
2022-11-08T06:41:16.674Z,2.53
2022-11-08T06:42:18.328Z,2.60
2022-11-08T06:43:20.423Z,4.20
2022-11-08T06:44:22.081Z,4.80
2022-11-08T06:45:23.350Z,4.10
2022-11-08T06:46:24.756Z,3.50
2022-11-08T06:47:26.128Z,3.60
2022-11-08T06:48:32.384Z,3.33
2022-11-08T06:49:37.683Z,3.93
2022-11-08T06:50:39.060Z,5.17
2022-11-08T06:51:40.438Z,4.73
2022-11-08T06:52:41.756Z,4.40
2022-11-08T06:53:43.372Z,4.03
2022-11-08T06:54:44.697Z,4.03
2022-11-08T06:55:45.999Z,4.47
2022-11-08T06:56:47.362Z,4.07
2022-11-08T06:57:48.676Z,4.50
2022-11-08T06:58:52.029Z,4.00
2022-11-08T06:59:53.404Z,4.43
2022-11-08T07:00:54.713Z,4.47
2022-11-08T07:01:56.533Z,4.73
2022-11-08T07:03:02.163Z,4.40
2022-11-08T07:04:03.934Z,4.13
2022-11-08T07:05:05.421Z,3.60
2022-11-08T07:06:07.163Z,3.33
2022-11-08T07:07:08.926Z,3.53
2022-11-08T07:08:10.323Z,3.33
2022-11-08T07:09:11.796Z,3.87
2022-11-08T07:10:13.178Z,4.33
2022-11-08T07:11:14.613Z,5.60
2022-11-08T07:12:15.919Z,4.20
2022-11-08T07:13:17.637Z,5.37
2022-11-08T07:14:19.244Z,5.07
2022-11-08T07:15:22.434Z,4.47
2022-11-08T07:16:23.816Z,3.10
2022-11-08T07:17:25.180Z,3.20
2022-11-08T07:18:26.731Z,3.00
2022-11-08T07:19:28.065Z,2.83
2022-11-08T07:20:29.421Z,2.53
2022-11-08T07:21:30.909Z,2.53
2022-11-08T07:22:32.300Z,2.73
2022-11-08T07:23:33.831Z,2.80
2022-11-08T07:24:35.232Z,2.70
2022-11-08T07:25:37.149Z,2.60
2022-11-08T07:26:38.506Z,2.60
2022-11-08T07:27:39.852Z,2.63
2022-11-08T07:28:41.161Z,3.00
2022-11-08T07:29:42.492Z,4.03
2022-11-08T07:30:47.666Z,3.27
2022-11-08T07:31:49.000Z,3.27
2022-11-08T07:32:50.500Z,2.77
2022-11-08T07:33:51.971Z,2.97
2022-11-08T07:34:53.266Z,2.33
2022-11-08T07:35:54.857Z,2.17
2022-11-08T07:36:56.167Z,2.30
2022-11-08T07:37:57.531Z,2.40
2022-11-08T07:39:02.416Z,2.30
2022-11-08T07:40:07.181Z,1.90
2022-11-08T07:41:09.002Z,2.00
2022-11-08T07:42:10.311Z,2.30
2022-11-08T07:43:13.060Z,2.30
2022-11-08T07:44:14.673Z,2.00
2022-11-08T07:45:16.044Z,2.03
2022-11-08T07:46:17.505Z,2.40
2022-11-08T07:47:18.832Z,2.33
2022-11-08T07:48:20.217Z,2.30
2022-11-08T07:49:21.565Z,2.10
2022-11-08T07:50:22.990Z,2.50
2022-11-08T07:51:24.299Z,2.23
2022-11-08T07:52:25.710Z,2.63
2022-11-08T07:53:27.115Z,2.50
2022-11-08T07:54:28.396Z,2.40
2022-11-08T07:55:29.760Z,2.90
2022-11-08T07:56:31.070Z,2.57
2022-11-08T07:57:32.559Z,2.80
2022-11-08T07:58:34.459Z,2.77
2022-11-08T07:59:35.752Z,2.70
2022-11-08T08:00:38.128Z,2.53
2022-11-08T08:01:39.589Z,2.73
2022-11-08T08:02:41.086Z,2.37
2022-11-08T08:03:42.537Z,2.67
2022-11-08T08:04:43.830Z,2.40
2022-11-08T08:05:45.656Z,2.30
2022-11-08T08:06:46.979Z,2.00
2022-11-08T08:07:48.356Z,2.10
2022-11-08T08:08:50.066Z,2.07
2022-11-08T08:09:51.354Z,1.93
2022-11-08T08:10:56.001Z,1.90
2022-11-08T08:11:57.423Z,2.30
2022-11-08T08:12:58.775Z,2.50
2022-11-08T08:14:00.209Z,2.23
2022-11-08T08:15:01.494Z,2.37
2022-11-08T08:16:02.870Z,2.33
2022-11-08T08:17:04.193Z,2.10
2022-11-08T08:18:07.150Z,1.97
2022-11-08T08:19:08.493Z,2.27
2022-11-08T08:20:10.158Z,2.13
2022-11-08T08:21:11.549Z,2.30
2022-11-08T08:22:12.901Z,2.50
2022-11-08T08:23:14.207Z,2.40
2022-11-08T08:24:15.517Z,2.00
2022-11-08T08:25:17.220Z,2.07
2022-11-08T08:26:18.519Z,2.07
2022-11-08T08:27:19.824Z,2.50
2022-11-08T08:28:21.177Z,1.90
2022-11-08T08:29:22.573Z,1.53
2022-11-08T08:30:24.350Z,2.07
2022-11-08T08:31:25.955Z,1.97
2022-11-08T08:32:31.281Z,1.77
2022-11-08T08:33:33.286Z,1.97
2022-11-08T08:34:34.696Z,1.87
2022-11-08T08:35:36.314Z,1.80
2022-11-08T08:36:37.915Z,1.90
2022-11-08T08:37:39.280Z,2.10
2022-11-08T08:38:44.561Z,2.03
2022-11-08T08:39:46.562Z,1.93
2022-11-08T08:40:47.843Z,1.90
2022-11-08T08:41:49.168Z,1.73
2022-11-08T08:42:50.458Z,1.70
2022-11-08T08:43:51.818Z,1.87
2022-11-08T08:44:53.254Z,2.00
2022-11-08T08:45:55.255Z,2.10
2022-11-08T08:46:56.667Z,2.07
2022-11-08T08:47:58.115Z,1.97
2022-11-08T08:49:01.931Z,2.57
2022-11-08T08:50:03.320Z,2.40
2022-11-08T08:51:04.669Z,2.10
2022-11-08T08:52:05.970Z,1.77
2022-11-08T08:53:07.356Z,1.93
2022-11-08T08:54:09.332Z,1.60
2022-11-08T08:55:10.613Z,2.03
2022-11-08T08:56:11.978Z,2.00
2022-11-08T08:57:13.284Z,2.10
2022-11-08T08:58:14.639Z,2.03
2022-11-08T09:02:00.943Z,1.83
2022-11-08T09:03:06.154Z,1.77
2022-11-08T09:04:07.584Z,1.60
2022-11-08T09:05:09.568Z,2.17
2022-11-08T09:06:10.919Z,1.87
2022-11-08T09:07:12.488Z,1.90
2022-11-08T09:08:14.449Z,2.30
2022-11-08T09:09:16.091Z,2.00
2022-11-08T09:10:17.501Z,1.77
2022-11-08T09:11:18.847Z,2.20
2022-11-08T09:12:20.203Z,2.10
2022-11-08T09:13:22.110Z,1.90
2022-11-08T09:14:23.588Z,2.10
2022-11-08T09:15:24.961Z,1.97
2022-11-08T09:16:26.299Z,1.83
2022-11-08T09:17:28.678Z,1.90
2022-11-08T09:18:30.538Z,1.70
2022-11-08T09:19:31.997Z,1.80
2022-11-08T09:20:33.325Z,2.03
2022-11-08T09:21:34.728Z,1.70
2022-11-08T09:22:36.624Z,1.87
2022-11-08T09:23:38.004Z,1.70
2022-11-08T09:24:39.474Z,1.90
2022-11-08T09:25:40.916Z,1.47
2022-11-08T09:26:42.313Z,1.90
2022-11-08T09:27:43.653Z,2.00
2022-11-08T09:28:45.012Z,2.10
2022-11-08T09:29:46.565Z,1.80
2022-11-08T09:30:47.879Z,1.97
2022-11-08T09:31:49.836Z,2.03
2022-11-08T09:33:02.187Z,1.73
2022-11-08T09:35:05.374Z,1.57
2022-11-08T09:36:07.940Z,1.80
2022-11-08T09:37:09.281Z,1.87
2022-11-08T09:38:10.606Z,2.00
2022-11-08T09:39:12.029Z,2.00
2022-11-08T09:40:26.130Z,2.00
2022-11-08T09:41:43.148Z,1.67
2022-11-08T09:42:57.134Z,2.13
2022-11-08T09:44:17.475Z,1.70
2022-11-08T09:45:24.387Z,2.33
2022-11-08T09:46:34.493Z,2.10
2022-11-08T09:47:37.490Z,1.83
2022-11-08T09:48:40.559Z,2.20
2022-11-08T09:49:47.040Z,2.13
2022-11-08T09:50:49.282Z,1.87
2022-11-08T09:51:51.127Z,1.90
2022-11-08T09:53:00.791Z,1.90
2022-11-08T09:54:03.748Z,1.73
2022-11-08T09:55:11.719Z,1.80
2022-11-08T09:56:15.953Z,2.80
2022-11-08T09:57:24.361Z,3.70
2022-11-08T09:58:41.048Z,2.60
2022-11-08T09:59:52.281Z,3.10
2022-11-08T10:00:53.824Z,3.47
2022-11-08T10:01:55.214Z,2.90
2022-11-08T10:02:57.072Z,3.13
2022-11-08T10:04:02.409Z,2.80
2022-11-08T10:05:05.996Z,2.60
2022-11-08T10:06:25.968Z,2.33
2022-11-08T10:07:27.417Z,2.33
2022-11-08T10:08:31.946Z,2.07
2022-11-08T10:09:59.929Z,2.23
2022-11-08T10:11:21.756Z,2.60
2022-11-08T10:12:28.133Z,2.60
2022-11-08T10:13:32.781Z,2.30
2022-11-08T10:14:53.873Z,2.43
2022-11-08T10:16:19.665Z,2.30
2022-11-08T10:17:21.066Z,2.17
2022-11-08T10:18:22.522Z,2.20
2022-11-08T10:19:23.892Z,2.10
2022-11-08T10:20:40.232Z,2.90
2022-11-08T10:21:52.376Z,3.47
2022-11-08T10:22:59.941Z,4.43
2022-11-08T10:24:09.589Z,3.10
2022-11-08T10:25:24.532Z,2.20
2022-11-08T10:26:29.726Z,2.20
2022-11-08T10:27:37.153Z,2.20
2022-11-08T10:29:00.093Z,1.93
2022-11-08T10:30:06.024Z,1.97
2022-11-08T10:31:09.997Z,2.10
2022-11-08T10:32:21.691Z,2.23
2022-11-08T10:33:32.258Z,1.70
2022-11-08T10:34:39.114Z,1.70
2022-11-08T10:35:42.914Z,2.67
2022-11-08T10:36:45.902Z,4.80
2022-11-08T10:37:49.207Z,4.33
2022-11-08T10:39:11.535Z,2.90
2022-11-08T10:40:27.037Z,3.10
2022-11-08T10:41:31.956Z,2.60
2022-11-08T10:42:44.069Z,2.80
2022-11-08T10:43:48.913Z,2.30
2022-11-08T10:44:50.361Z,2.30
2022-11-08T10:45:52.183Z,2.10
2022-11-08T10:46:56.533Z,2.13
2022-11-08T10:47:57.922Z,1.93
2022-11-08T10:49:08.370Z,8.07
2022-11-08T10:50:18.028Z,4.63
2022-11-08T10:51:19.451Z,3.23
2022-11-08T10:52:35.916Z,2.77
2022-11-08T10:53:43.220Z,3.10
2022-11-08T10:54:48.850Z,2.30
2022-11-08T10:55:51.667Z,2.50
2022-11-08T10:56:56.092Z,1.93
2022-11-08T10:57:57.611Z,1.90
2022-11-08T10:58:59.038Z,1.80
2022-11-08T11:00:19.307Z,2.30
2022-11-08T11:01:25.578Z,2.20
2022-11-08T11:02:27.087Z,2.00
2022-11-08T11:03:31.223Z,1.90
2022-11-08T11:04:33.044Z,2.20
2022-11-08T11:05:35.597Z,2.00
2022-11-08T11:06:37.000Z,1.97
2022-11-08T11:07:38.443Z,2.07
2022-11-08T11:08:48.236Z,2.87
2022-11-08T11:09:49.751Z,2.53
2022-11-08T11:10:51.478Z,2.03
2022-11-08T11:12:00.130Z,2.03
2022-11-08T11:13:06.510Z,1.80
2022-11-08T11:14:13.147Z,1.50
2022-11-08T11:15:17.896Z,1.70
2022-11-08T11:16:19.317Z,2.90
2022-11-08T11:18:28.508Z,9.03
2022-11-08T11:19:30.086Z,9.83
2022-11-08T11:20:31.735Z,10.40
2022-11-08T11:21:37.711Z,14.23
2022-11-08T11:22:39.054Z,6.90
2022-11-08T11:23:40.414Z,5.33
2022-11-08T11:24:50.439Z,2.87
2022-11-08T11:25:52.150Z,2.40
2022-11-08T11:26:56.284Z,2.30
2022-11-08T11:27:59.082Z,2.90
2022-11-08T11:29:07.262Z,2.63
2022-11-08T11:30:23.802Z,2.50
2022-11-08T11:31:25.192Z,2.80
2022-11-08T11:32:34.577Z,2.07
2022-11-08T11:33:43.120Z,1.93
2022-11-08T11:35:04.787Z,2.23
2022-11-08T11:36:13.282Z,2.17
2022-11-08T11:37:18.766Z,2.67
2022-11-08T11:38:23.582Z,2.20
2022-11-08T11:39:27.518Z,1.80
2022-11-08T11:40:37.952Z,1.57
2022-11-08T11:41:42.191Z,1.77
2022-11-08T11:42:56.055Z,1.50
2022-11-08T11:44:03.497Z,1.60
2022-11-08T11:45:34.055Z,1.43
2022-11-08T11:46:49.569Z,1.43
2022-11-08T11:47:53.254Z,1.50
2022-11-08T11:49:02.406Z,1.60
2022-11-08T11:50:30.156Z,1.40
2022-11-08T11:51:31.560Z,1.40
2022-11-08T11:52:34.319Z,1.37
2022-11-08T11:53:38.723Z,1.50
2022-11-08T11:54:41.808Z,1.43
2022-11-08T11:55:43.089Z,1.80
2022-11-08T11:57:03.037Z,1.40
2022-11-08T11:58:04.395Z,1.60
2022-11-08T11:59:11.824Z,1.10
2022-11-08T12:00:14.714Z,1.50
2022-11-08T12:01:35.868Z,1.60
2022-11-08T12:02:37.204Z,1.50
2022-11-08T12:03:45.551Z,1.60
2022-11-08T12:05:13.388Z,1.90
2022-11-08T12:06:23.933Z,1.70
2022-11-08T12:07:29.931Z,1.60
2022-11-08T12:08:58.023Z,1.83
2022-11-08T12:10:18.004Z,1.67
2022-11-08T12:11:25.471Z,1.77
2022-11-08T12:12:39.025Z,1.57
2022-11-08T12:14:06.730Z,1.97
2022-11-08T12:15:15.336Z,2.20
2022-11-08T12:16:19.627Z,1.80
2022-11-08T12:17:30.051Z,2.07
2022-11-08T12:18:43.117Z,1.80
2022-11-08T12:19:51.236Z,1.70
2022-11-08T12:21:12.057Z,1.97
2022-11-08T12:22:48.929Z,1.33
2022-11-08T12:23:52.955Z,1.40
2022-11-08T12:25:00.231Z,1.60
2022-11-08T12:26:13.535Z,1.90
2022-11-08T12:27:18.031Z,2.93
2022-11-08T12:28:31.732Z,2.70
2022-11-08T12:29:43.834Z,1.60
2022-11-08T12:30:53.977Z,1.63
2022-11-08T12:31:58.866Z,1.80
2022-11-08T12:33:18.698Z,2.03
2022-11-08T12:34:22.740Z,1.60
2022-11-08T12:35:24.080Z,1.70
2022-11-08T12:36:31.336Z,1.83
2022-11-08T12:37:43.573Z,1.87
2022-11-08T12:39:05.118Z,1.87
2022-11-08T12:40:23.492Z,2.27
2022-11-08T12:41:40.246Z,1.97
2022-11-08T12:42:42.226Z,2.30
2022-11-08T12:44:03.827Z,1.93
2022-11-08T12:45:05.205Z,3.57
2022-11-08T12:46:06.540Z,4.33
2022-11-08T12:47:34.594Z,6.53
2022-11-08T12:48:49.137Z,4.77
2022-11-08T12:50:05.435Z,5.00
2022-11-08T12:51:25.083Z,6.80
2022-11-08T12:52:26.357Z,5.10
2022-11-08T12:53:30.348Z,4.40
2022-11-08T12:54:34.083Z,4.40
2022-11-08T12:55:41.436Z,4.37
2022-11-08T12:56:48.244Z,3.60
2022-11-08T12:57:51.959Z,3.13
2022-11-08T12:58:54.294Z,3.00
2022-11-08T13:00:04.737Z,4.60
2022-11-08T13:01:07.434Z,3.87
2022-11-08T13:02:21.054Z,3.00
2022-11-08T13:03:42.733Z,2.03
2022-11-08T13:04:50.108Z,2.27
2022-11-08T13:05:59.292Z,2.20
2022-11-08T13:07:06.609Z,2.30
2022-11-08T13:08:23.831Z,2.20
2022-11-08T13:09:25.262Z,2.13
2022-11-08T13:10:47.581Z,3.00
2022-11-08T13:11:52.632Z,2.80
2022-11-08T13:12:54.072Z,2.27
2022-11-08T13:13:56.534Z,1.67
2022-11-08T13:15:01.757Z,1.30
2022-11-08T13:16:11.310Z,2.37
2022-11-08T13:17:14.646Z,2.70
2022-11-08T13:18:16.544Z,2.60
2022-11-08T13:19:27.296Z,2.30
2022-11-08T13:20:42.827Z,1.93
2022-11-08T13:21:44.205Z,2.23
2022-11-08T13:22:56.961Z,2.10
2022-11-08T13:24:30.453Z,1.90
2022-11-08T13:25:28.231Z,2.00
2022-11-08T13:26:30.335Z,2.40
2022-11-08T13:27:31.756Z,2.27
2022-11-08T13:28:37.263Z,2.13
2022-11-08T13:29:38.733Z,2.00
2022-11-08T13:30:41.321Z,1.87
2022-11-08T13:31:54.821Z,1.70
2022-11-08T13:33:34.757Z,1.50
2022-11-08T13:34:49.172Z,1.77
2022-11-08T13:36:09.139Z,1.50
2022-11-08T13:37:32.710Z,1.23
2022-11-08T13:39:01.563Z,1.47
2022-11-08T13:40:02.886Z,1.20
2022-11-08T13:41:04.293Z,1.10
2022-11-08T13:42:25.968Z,1.33
2022-11-08T13:43:29.568Z,1.60
2022-11-08T13:44:49.540Z,1.47
2022-11-08T13:45:51.428Z,1.40
2022-11-08T13:46:52.794Z,1.47
2022-11-08T13:47:55.353Z,1.70
2022-11-08T13:49:07.217Z,1.37
2022-11-08T13:50:27.583Z,1.57
2022-11-08T13:51:36.416Z,1.40
2022-11-08T13:52:47.808Z,1.47
2022-11-08T13:53:54.456Z,1.40
2022-11-08T13:54:55.844Z,1.60
2022-11-08T13:55:58.335Z,1.60
2022-11-08T13:57:00.741Z,1.73
2022-11-08T13:58:02.281Z,1.70
2022-11-08T13:59:26.952Z,1.43
2022-11-08T14:00:54.829Z,1.50
2022-11-08T14:02:05.455Z,1.80
2022-11-08T14:03:26.733Z,2.00
2022-11-08T14:04:37.181Z,1.63
2022-11-08T14:05:43.412Z,2.00
2022-11-08T14:06:50.805Z,1.90
2022-11-08T14:08:00.485Z,1.73
2022-11-08T14:09:04.942Z,2.10
2022-11-08T14:10:09.110Z,2.00
2022-11-08T14:11:22.804Z,1.90
2022-11-08T14:12:29.434Z,1.77
2022-11-08T14:13:42.740Z,1.60
2022-11-08T14:14:50.254Z,2.07
2022-11-08T14:16:07.542Z,1.80
2022-11-08T14:17:23.944Z,1.70
2022-11-08T14:18:29.607Z,1.63
2022-11-08T14:19:32.049Z,1.70
2022-11-08T14:20:36.620Z,2.00
2022-11-08T14:21:38.067Z,2.17
2022-11-08T14:22:46.206Z,2.00
2022-11-08T14:23:51.236Z,2.00
2022-11-08T14:24:54.151Z,1.73
2022-11-08T14:25:55.449Z,2.00
2022-11-08T14:26:56.898Z,2.10
2022-11-08T14:27:58.330Z,1.90
2022-11-08T14:29:00.033Z,1.60